ヘルシンキ/ヴァンター の空港の天気 - METARとTAF

ヘルシンキ・ヴァンター国際空港 ( EFHK / HEL ) - フィンランド ヴァンター
飛行場実況気象(Metar)
観測時間02/17 16:50 EET (02/17 14:50 UTC)
風向・風速北西 4m/s
視程10km以上
天気現象
なし
気温3℃
湿度52%
気圧1016hPa
METAREFHK 171450Z 31007KT CAVOK 03/M06 Q1016 NOSIG
過去の天気等 Google飛行場航空写真 Wunderground天気予報

過去48時間のMETAR

飛行場予報(TAF)
発表時間: 2/17 16:34 EET (2/17 14:34 UTC)
予報対象時間: 17日17時 EET ~ 18日17時 EET
風向・風速北西 7m/s
視程10km以上
なし
17日22時 EET ~ 17日24時 EET に徐々に
風向・風速北西 2m/s
18日12時 EET ~ 18日14時 EET に徐々に
風向・風速南南西 6m/s
18日14時 EET ~ 18日17時 EET に一時的に
視程6000m
天気現象弱い雪
全天の8割程度の雲 雲底高度 240m
TAF EFHK 171434Z 1715/1815 31013KT CAVOK
BECMG 1720/1722 32003KT
BECMG 1810/1812 20012KT
TEMPO 1812/1815 6000 -SN BKN008